createdAt,value
2023-04-13T00:01:13.229Z,4.67
2023-04-13T00:03:40.166Z,5.37
2023-04-13T00:06:11.240Z,4.70
2023-04-13T00:08:38.159Z,4.87
2023-04-13T00:11:07.435Z,5.00
2023-04-13T00:13:40.847Z,4.93
2023-04-13T00:16:09.441Z,5.13
2023-04-13T00:18:36.015Z,5.20
2023-04-13T00:21:03.372Z,5.53
2023-04-13T00:23:29.971Z,4.67
2023-04-13T00:25:56.556Z,5.43
2023-04-13T00:28:24.258Z,5.33
2023-04-13T00:30:51.080Z,5.50
2023-04-13T00:33:17.730Z,5.10
2023-04-13T00:35:44.902Z,5.00
2023-04-13T00:38:11.590Z,5.40
2023-04-13T00:40:38.221Z,5.47
2023-04-13T00:43:05.632Z,5.93
2023-04-13T00:45:38.807Z,5.97
2023-04-13T00:48:08.893Z,6.40
2023-04-13T00:50:35.589Z,5.90
2023-04-13T00:53:02.484Z,6.03
2023-04-13T00:55:29.130Z,5.80
2023-04-13T00:57:55.966Z,5.90
2023-04-13T01:00:24.532Z,6.20
2023-04-13T01:02:52.582Z,7.03
2023-04-13T01:05:19.582Z,6.97
2023-04-13T01:07:56.322Z,7.03
2023-04-13T01:10:52.541Z,7.07
2023-04-13T01:13:22.859Z,7.70
2023-04-13T01:16:05.193Z,7.73
2023-04-13T01:18:35.410Z,7.77
2023-04-13T01:21:04.646Z,8.50
2023-04-13T01:24:07.783Z,7.90
2023-04-13T01:26:57.528Z,8.00
2023-04-13T01:29:27.037Z,7.50
2023-04-13T01:31:54.977Z,7.43
2023-04-13T01:34:23.297Z,7.20
2023-04-13T01:36:50.844Z,7.23
2023-04-13T01:39:21.284Z,7.90
2023-04-13T01:41:47.894Z,7.77
2023-04-13T01:44:14.629Z,7.77
2023-04-13T01:46:46.294Z,7.70
2023-04-13T01:49:18.504Z,8.73
2023-04-13T01:51:48.189Z,8.73
2023-04-13T01:54:20.305Z,9.07
2023-04-13T01:56:48.211Z,9.67
2023-04-13T01:59:16.556Z,10.07
2023-04-13T02:01:43.732Z,9.50
2023-04-13T02:04:10.925Z,9.90
2023-04-13T02:06:37.757Z,9.97
2023-04-13T02:09:06.659Z,10.07
2023-04-13T02:11:34.765Z,10.57
2023-04-13T02:14:02.254Z,10.13
2023-04-13T02:16:29.010Z,10.87
2023-04-13T02:18:58.331Z,11.00
2023-04-13T02:21:25.709Z,10.97
2023-04-13T02:23:52.544Z,10.37
2023-04-13T02:26:19.798Z,10.70
2023-04-13T02:28:46.511Z,9.80
2023-04-13T02:31:16.760Z,10.50
2023-04-13T02:33:44.773Z,8.97
2023-04-13T02:36:11.954Z,8.60
2023-04-13T02:38:38.765Z,8.47
2023-04-13T02:41:06.491Z,7.60
2023-04-13T02:43:33.294Z,7.57
2023-04-13T02:46:00.021Z,7.43
2023-04-13T02:48:26.921Z,6.67
2023-04-13T02:50:54.251Z,7.07
2023-04-13T02:53:21.966Z,6.67
2023-04-13T02:55:50.382Z,6.60
2023-04-13T02:58:17.190Z,6.40
2023-04-13T03:00:44.510Z,6.37
2023-04-13T03:03:11.390Z,6.30
2023-04-13T03:05:38.864Z,6.47
2023-04-13T03:08:06.161Z,6.40
2023-04-13T03:10:32.845Z,6.43
2023-04-13T03:12:59.734Z,6.40
2023-04-13T03:15:26.299Z,6.07
2023-04-13T03:17:53.045Z,6.43
2023-04-13T03:20:20.805Z,6.17
2023-04-13T03:22:47.404Z,7.07
2023-04-13T03:25:14.029Z,6.67
2023-04-13T03:27:40.596Z,7.07
2023-04-13T03:30:08.098Z,7.43
2023-04-13T03:32:34.804Z,7.43
2023-04-13T03:35:01.436Z,6.87
2023-04-13T03:37:30.352Z,6.87
2023-04-13T03:39:58.017Z,6.87
2023-04-13T03:42:24.642Z,5.90
2023-04-13T03:44:51.189Z,6.27
2023-04-13T03:47:17.823Z,5.90
2023-04-13T03:49:44.493Z,5.90
2023-04-13T03:52:11.116Z,5.60
2023-04-13T03:54:38.073Z,5.30
2023-04-13T03:57:05.288Z,5.60
2023-04-13T03:59:31.927Z,5.20
2023-04-13T04:01:58.601Z,4.93
2023-04-13T04:04:25.473Z,4.90
2023-04-13T04:06:52.137Z,5.20
2023-04-13T04:09:18.714Z,5.47
2023-04-13T04:11:45.707Z,4.97
2023-04-13T04:14:12.322Z,6.97
2023-04-13T04:16:38.946Z,4.97
2023-04-13T04:19:05.550Z,6.10
2023-04-13T04:21:35.905Z,4.80
2023-04-13T04:24:06.084Z,5.33
2023-04-13T04:26:32.750Z,4.73
2023-04-13T04:29:02.328Z,5.23
2023-04-13T04:31:37.082Z,4.97
2023-04-13T04:34:04.477Z,5.07
2023-04-13T04:36:31.136Z,6.20
2023-04-13T04:39:02.638Z,5.40
2023-04-13T04:41:31.019Z,5.10
2023-04-13T04:44:02.686Z,5.20
2023-04-13T04:46:29.649Z,4.33
2023-04-13T04:49:00.574Z,3.87
2023-04-13T04:51:28.029Z,4.30
2023-04-13T04:53:54.743Z,4.00
2023-04-13T04:56:21.945Z,4.43
2023-04-13T04:58:48.542Z,4.20
2023-04-13T05:01:15.262Z,4.10
2023-04-13T05:03:42.194Z,4.10
2023-04-13T05:06:09.404Z,4.13
2023-04-13T05:08:36.061Z,3.97
2023-04-13T05:11:06.549Z,4.60
2023-04-13T05:13:33.133Z,4.07
2023-04-13T05:15:59.718Z,4.07
2023-04-13T05:18:27.089Z,4.30
2023-04-13T05:20:53.695Z,3.97
2023-04-13T05:23:20.315Z,5.13
2023-04-13T05:25:46.881Z,4.70
2023-04-13T05:28:13.513Z,4.30
2023-04-13T05:30:40.082Z,4.87
2023-04-13T05:33:08.976Z,7.57
2023-04-13T05:35:37.429Z,5.43
2023-04-13T05:38:04.418Z,4.73
2023-04-13T05:40:33.576Z,5.60
2023-04-13T05:43:00.197Z,5.50
2023-04-13T05:45:27.362Z,5.50
2023-04-13T05:47:54.077Z,6.30
2023-04-13T05:50:20.700Z,6.03
2023-04-13T05:52:47.702Z,6.07
2023-04-13T05:55:14.275Z,6.33
2023-04-13T05:57:40.828Z,5.97
2023-04-13T06:00:10.223Z,7.00
2023-04-13T06:02:39.049Z,6.40
2023-04-13T06:05:07.977Z,6.90
2023-04-13T06:07:35.747Z,7.03
2023-04-13T06:10:02.524Z,6.70
2023-04-13T06:12:30.324Z,6.60
2023-04-13T06:14:57.107Z,8.53
2023-04-13T06:17:24.314Z,6.47
2023-04-13T06:19:50.917Z,8.50
2023-04-13T06:22:17.494Z,6.63
2023-04-13T06:24:44.048Z,6.27
2023-04-13T06:27:11.174Z,6.30
2023-04-13T06:29:38.125Z,6.20
2023-04-13T06:32:05.001Z,5.90
2023-04-13T06:34:34.333Z,6.80
2023-04-13T06:37:01.829Z,6.20
2023-04-13T06:39:29.373Z,5.60
2023-04-13T06:41:57.549Z,5.23
2023-04-13T06:44:24.643Z,5.47
2023-04-13T06:46:51.349Z,6.73
2023-04-13T06:49:18.009Z,4.80
2023-04-13T06:51:44.565Z,4.50
2023-04-13T06:54:11.152Z,5.93
2023-04-13T06:56:38.800Z,4.87
2023-04-13T06:59:05.978Z,5.30
2023-04-13T07:01:32.911Z,4.40
2023-04-13T07:03:59.818Z,4.17
2023-04-13T07:06:27.445Z,4.50
2023-04-13T07:08:54.030Z,4.20
2023-04-13T07:11:20.820Z,4.00
2023-04-13T07:13:47.526Z,3.87
2023-04-13T07:16:14.189Z,3.57
2023-04-13T07:18:40.834Z,3.90
2023-04-13T07:21:07.651Z,3.80
2023-04-13T07:23:34.443Z,3.67
2023-04-13T07:26:01.487Z,3.37
2023-04-13T07:28:28.321Z,3.70
2023-04-13T07:30:54.942Z,3.20
2023-04-13T07:33:21.602Z,3.27
2023-04-13T07:35:50.224Z,3.27
2023-04-13T07:38:16.845Z,3.20
2023-04-13T07:40:43.426Z,3.10
2023-04-13T07:43:10.195Z,2.80
2023-04-13T07:45:36.825Z,3.20
2023-04-13T07:48:03.697Z,3.30
2023-04-13T07:50:30.328Z,3.33
2023-04-13T07:52:56.910Z,3.00
2023-04-13T07:55:23.580Z,2.90
2023-04-13T07:57:50.329Z,3.10
2023-04-13T08:00:20.297Z,3.30
2023-04-13T08:02:47.752Z,2.30
2023-04-13T08:05:14.807Z,3.03
2023-04-13T08:07:41.503Z,2.93
2023-04-13T08:10:08.888Z,2.20
2023-04-13T08:12:35.473Z,3.20
2023-04-13T08:15:02.124Z,2.57
2023-04-13T08:17:34.504Z,2.43
2023-04-13T08:20:01.113Z,2.37
2023-04-13T08:22:27.662Z,2.30
2023-04-13T08:24:54.643Z,2.70
2023-04-13T08:27:21.207Z,2.50
2023-04-13T08:29:47.783Z,2.20
2023-04-13T08:32:14.428Z,2.83
2023-04-13T08:34:42.008Z,2.00
2023-04-13T08:37:08.591Z,2.20
2023-04-13T08:39:35.216Z,2.13
2023-04-13T08:42:01.859Z,2.20
2023-04-13T08:44:29.068Z,2.13
2023-04-13T08:46:56.031Z,2.07
2023-04-13T08:49:22.945Z,2.00
2023-04-13T08:51:50.683Z,2.13
2023-04-13T08:54:17.888Z,1.90
2023-04-13T08:56:47.288Z,1.80
2023-04-13T08:59:16.004Z,1.90
2023-04-13T09:01:46.455Z,1.83
2023-04-13T09:04:17.941Z,2.00
2023-04-13T09:06:47.848Z,1.60
2023-04-13T09:09:14.877Z,1.60
2023-04-13T09:11:42.842Z,1.57
2023-04-13T09:14:10.085Z,1.67
2023-04-13T09:16:43.568Z,1.70
2023-04-13T09:19:11.335Z,1.70
2023-04-13T09:21:43.865Z,1.80
2023-04-13T09:24:12.392Z,1.63
2023-04-13T09:26:44.187Z,1.30
2023-04-13T09:29:14.599Z,1.40
2023-04-13T09:31:42.946Z,1.43
2023-04-13T09:34:11.772Z,1.40
2023-04-13T09:36:49.697Z,1.50
2023-04-13T09:39:30.144Z,1.50
2023-04-13T09:41:58.105Z,1.60
2023-04-13T09:44:27.362Z,1.70
2023-04-13T09:47:01.865Z,1.53
2023-04-13T09:49:38.809Z,2.03
2023-04-13T09:52:08.220Z,1.30
2023-04-13T09:54:35.455Z,1.87
2023-04-13T09:57:04.799Z,1.30
2023-04-13T09:59:33.114Z,1.40
2023-04-13T10:02:01.596Z,1.40
2023-04-13T10:04:28.481Z,1.17
2023-04-13T10:06:55.416Z,1.63
2023-04-13T10:09:22.349Z,1.60
2023-04-13T10:11:53.836Z,1.60
2023-04-13T10:14:25.793Z,1.17
2023-04-13T10:17:07.615Z,1.40
2023-04-13T10:19:43.104Z,1.37
2023-04-13T10:22:11.275Z,1.23
2023-04-13T10:24:39.780Z,1.40
2023-04-13T10:27:23.423Z,1.40
2023-04-13T10:29:50.327Z,1.30
2023-04-13T10:32:27.435Z,1.30
2023-04-13T10:34:55.236Z,1.47
2023-04-13T10:37:24.558Z,1.00
2023-04-13T10:40:06.265Z,1.10
2023-04-13T10:42:52.241Z,1.20
2023-04-13T10:45:27.793Z,1.30
2023-04-13T10:47:55.960Z,1.30
2023-04-13T10:50:24.335Z,1.10
2023-04-13T10:53:26.550Z,1.50
2023-04-13T10:55:53.664Z,1.13
2023-04-13T10:58:20.486Z,1.30
2023-04-13T11:00:47.981Z,1.40
2023-04-13T11:03:16.986Z,1.30
2023-04-13T11:05:46.010Z,1.30
2023-04-13T11:08:20.591Z,1.23
2023-04-13T11:10:52.602Z,2.50
2023-04-13T11:13:19.656Z,1.50
2023-04-13T11:15:46.687Z,1.27
2023-04-13T11:18:13.459Z,1.30
2023-04-13T11:20:41.769Z,1.20
2023-04-13T11:23:18.849Z,1.10
2023-04-13T11:25:54.834Z,1.20
2023-04-13T11:28:25.597Z,1.03
2023-04-13T11:30:58.570Z,1.57
2023-04-13T11:33:26.848Z,1.30
2023-04-13T11:35:58.744Z,1.17
2023-04-13T11:38:25.515Z,1.27
2023-04-13T11:40:58.890Z,1.10
2023-04-13T11:43:28.565Z,1.50
2023-04-13T11:45:55.284Z,1.30
2023-04-13T11:48:22.403Z,1.30
2023-04-13T11:50:49.796Z,1.40
2023-04-13T11:53:16.986Z,1.27
2023-04-13T11:55:52.954Z,1.17
2023-04-13T11:58:21.419Z,1.30
2023-04-13T12:00:48.842Z,1.20
2023-04-13T12:05:47.762Z,1.00
2023-04-13T12:08:22.772Z,1.50
2023-04-13T12:11:25.098Z,1.48
2023-04-13T12:14:06.604Z,1.20
2023-04-13T12:17:03.038Z,1.20
2023-04-13T12:19:27.485Z,1.50
2023-04-13T12:21:56.764Z,1.30
2023-04-13T12:24:38.983Z,1.33
2023-04-13T12:29:41.638Z,1.10
2023-04-13T12:32:14.684Z,1.40
2023-04-13T12:34:42.313Z,1.47
2023-04-13T12:37:10.243Z,1.20
2023-04-13T12:39:37.180Z,1.30
2023-04-13T12:42:03.877Z,1.20
2023-04-13T12:44:33.107Z,1.20
2023-04-13T12:47:00.617Z,1.37
2023-04-13T12:49:27.287Z,1.43
2023-04-13T12:51:53.903Z,1.60
2023-04-13T12:54:20.647Z,1.27
2023-04-13T12:56:47.475Z,1.80
2023-04-13T12:59:14.053Z,1.57
2023-04-13T13:01:40.758Z,1.30
2023-04-13T13:04:07.567Z,1.67
2023-04-13T13:06:34.491Z,1.77
2023-04-13T13:09:01.470Z,1.55
2023-04-13T13:11:28.417Z,1.13
2023-04-13T13:13:55.379Z,1.50
2023-04-13T13:16:22.049Z,1.20
2023-04-13T13:18:51.371Z,1.80
2023-04-13T13:21:19.322Z,1.13
2023-04-13T13:23:46.219Z,1.23
2023-04-13T13:26:33.155Z,1.50
2023-04-13T13:28:59.927Z,0.90
2023-04-13T13:31:27.510Z,1.20
2023-04-13T13:33:57.053Z,1.17
2023-04-13T13:36:23.645Z,1.30
2023-04-13T13:38:50.704Z,1.23
2023-04-13T13:41:17.430Z,2.43
2023-04-13T13:43:44.009Z,1.35
2023-04-13T13:46:11.149Z,1.37
2023-04-13T13:48:37.817Z,1.33
2023-04-13T13:51:06.895Z,1.80
2023-04-13T13:53:34.301Z,1.60
2023-04-13T13:56:02.698Z,1.60
2023-04-13T13:58:29.525Z,1.50
2023-04-13T14:00:56.209Z,1.20
2023-04-13T14:03:23.159Z,1.13
2023-04-13T14:05:49.898Z,1.30
2023-04-13T14:08:16.757Z,1.20
2023-04-13T14:10:48.315Z,1.50
2023-04-13T14:13:15.278Z,1.47
2023-04-13T14:15:42.198Z,1.50
2023-04-13T14:18:11.393Z,1.23
2023-04-13T14:20:38.933Z,1.10
2023-04-13T14:23:06.412Z,1.40
2023-04-13T14:25:33.003Z,1.17
2023-04-13T14:27:59.592Z,1.30
2023-04-13T14:30:27.926Z,1.45
2023-04-13T14:32:55.047Z,1.10
2023-04-13T14:35:24.789Z,1.45
2023-04-13T14:37:53.012Z,1.60
2023-04-13T14:40:24.345Z,1.30
2023-04-13T14:42:52.962Z,1.40
2023-04-13T14:45:21.141Z,1.25
2023-04-13T14:47:47.990Z,1.20
2023-04-13T14:50:17.538Z,1.20
2023-04-13T14:52:45.223Z,1.40
2023-04-13T14:55:12.711Z,1.30
2023-04-13T14:57:40.233Z,1.30
2023-04-13T15:00:14.705Z,1.60
2023-04-13T15:02:41.754Z,1.30
2023-04-13T15:05:08.872Z,1.70
2023-04-13T15:07:36.015Z,1.47
2023-04-13T15:10:04.643Z,1.30
2023-04-13T15:12:32.198Z,1.83
2023-04-13T15:14:58.792Z,1.13
2023-04-13T15:17:26.371Z,1.80
2023-04-13T15:19:53.356Z,1.30
2023-04-13T15:22:19.948Z,1.13
2023-04-13T15:24:46.613Z,1.52
2023-04-13T15:27:13.358Z,1.60
2023-04-13T15:29:40.008Z,1.40
2023-04-13T15:32:06.649Z,1.30
2023-04-13T15:34:33.289Z,1.30
2023-04-13T15:36:59.946Z,1.10
2023-04-13T15:39:26.579Z,1.10
2023-04-13T15:41:55.001Z,1.23
2023-04-13T15:44:21.662Z,1.25
2023-04-13T15:46:48.358Z,1.60
2023-04-13T15:49:15.020Z,1.10
2023-04-13T15:51:41.622Z,1.30
2023-04-13T15:54:08.262Z,1.20
2023-04-13T15:56:35.451Z,1.37
2023-04-13T15:59:02.358Z,1.20
2023-04-13T16:01:43.099Z,1.10
2023-04-13T16:04:10.106Z,1.20
2023-04-13T16:06:36.738Z,1.23
2023-04-13T16:09:03.710Z,1.30
2023-04-13T16:11:31.844Z,1.57
2023-04-13T16:14:06.975Z,1.43
2023-04-13T16:16:53.470Z,1.50
2023-04-13T16:19:21.007Z,1.20
2023-04-13T16:21:50.798Z,1.50
2023-04-13T16:24:21.059Z,1.23
2023-04-13T16:26:47.971Z,1.40
2023-04-13T16:29:14.621Z,1.23
2023-04-13T16:31:44.726Z,1.20
2023-04-13T16:34:24.917Z,1.35
2023-04-13T16:36:56.181Z,1.33
2023-04-13T16:39:22.978Z,1.35
2023-04-13T16:41:50.076Z,1.30
2023-04-13T16:44:16.833Z,1.50
2023-04-13T16:46:43.488Z,1.50
2023-04-13T16:49:10.360Z,1.30
2023-04-13T16:51:37.076Z,1.63
2023-04-13T16:54:06.111Z,1.40
2023-04-13T16:56:32.716Z,1.43
2023-04-13T16:58:59.743Z,1.80
2023-04-13T17:01:26.767Z,1.40
2023-04-13T17:03:53.897Z,1.20
2023-04-13T17:06:21.375Z,1.57
2023-04-13T17:08:48.135Z,1.43
2023-04-13T17:11:15.863Z,1.10
2023-04-13T17:13:42.579Z,1.20
2023-04-13T17:16:09.708Z,1.30
2023-04-13T17:18:36.687Z,1.57
2023-04-13T17:21:03.395Z,1.73
2023-04-13T17:23:30.220Z,2.27
2023-04-13T17:25:56.874Z,1.50
2023-04-13T17:28:24.094Z,1.50
2023-04-13T17:30:50.842Z,1.40
2023-04-13T17:33:17.837Z,1.30
2023-04-13T17:35:44.484Z,1.30
2023-04-13T17:38:11.082Z,1.30
2023-04-13T17:40:37.666Z,1.57
2023-04-13T17:43:07.420Z,1.70
2023-04-13T17:45:34.079Z,1.27
2023-04-13T17:48:00.953Z,1.30
2023-04-13T17:50:27.613Z,1.70
2023-04-13T17:52:54.250Z,1.73
2023-04-13T17:55:20.989Z,1.50
2023-04-13T17:57:47.591Z,1.57
2023-04-13T18:00:15.187Z,1.50
2023-04-13T18:02:42.076Z,1.40
2023-04-13T18:05:15.191Z,1.70
2023-04-13T18:07:42.921Z,1.63
2023-04-13T18:10:10.701Z,1.67
2023-04-13T18:12:41.164Z,1.40
2023-04-13T18:15:08.795Z,1.50
2023-04-13T18:17:36.448Z,1.60
2023-04-13T18:20:03.431Z,1.63
2023-04-13T18:22:30.291Z,1.80
2023-04-13T18:24:56.867Z,1.77
2023-04-13T18:27:26.666Z,2.17
2023-04-13T18:29:57.062Z,2.30
2023-04-13T18:32:23.855Z,1.90
2023-04-13T18:34:53.444Z,1.80
2023-04-13T18:37:20.373Z,1.70
2023-04-13T18:39:46.972Z,2.93
2023-04-13T18:42:13.603Z,2.67
2023-04-13T18:44:40.506Z,2.80
2023-04-13T18:47:07.158Z,3.27
2023-04-13T18:49:33.787Z,3.60
2023-04-13T18:52:00.862Z,3.77
2023-04-13T18:54:27.498Z,4.10
2023-04-13T18:56:54.058Z,4.67
2023-04-13T18:59:20.713Z,5.17
2023-04-13T19:01:47.657Z,4.40
2023-04-13T19:04:14.591Z,4.73
2023-04-13T19:06:41.257Z,4.43
2023-04-13T19:09:08.353Z,4.47
2023-04-13T19:11:46.379Z,4.80
2023-04-13T19:14:13.015Z,4.70
2023-04-13T19:16:39.630Z,4.43
2023-04-13T19:19:06.300Z,4.63
2023-04-13T19:21:32.863Z,4.80
2023-04-13T19:23:59.599Z,4.30
2023-04-13T19:26:26.301Z,4.10
2023-04-13T19:28:55.336Z,4.20
2023-04-13T19:31:22.600Z,4.13
2023-04-13T19:33:49.224Z,4.10
2023-04-13T19:36:16.082Z,4.50
2023-04-13T19:38:44.904Z,4.57
2023-04-13T19:41:12.513Z,4.37
2023-04-13T19:43:39.124Z,4.30
2023-04-13T19:46:05.976Z,4.60
2023-04-13T19:48:32.607Z,4.97
2023-04-13T19:50:59.147Z,4.60
2023-04-13T19:53:25.986Z,5.17
2023-04-13T19:55:52.550Z,5.43
2023-04-13T19:58:19.443Z,6.13
2023-04-13T20:00:47.195Z,6.10
2023-04-13T20:03:14.442Z,7.20
2023-04-13T20:05:41.254Z,7.27
2023-04-13T20:08:07.818Z,7.30
2023-04-13T20:10:34.592Z,8.43
2023-04-13T20:13:01.192Z,7.50
2023-04-13T20:15:30.872Z,7.50
2023-04-13T20:17:57.752Z,7.73
2023-04-13T20:20:24.445Z,7.07
2023-04-13T20:22:57.152Z,6.20
2023-04-13T20:25:23.820Z,7.37
2023-04-13T20:27:50.477Z,6.77
2023-04-13T20:30:17.118Z,7.20
2023-04-13T20:32:44.011Z,7.20
2023-04-13T20:35:10.710Z,6.93
2023-04-13T20:37:37.376Z,7.73
2023-04-13T20:40:06.729Z,9.10
2023-04-13T20:42:33.331Z,8.43
2023-04-13T20:45:00.014Z,8.07
2023-04-13T20:47:28.454Z,8.30
2023-04-13T20:49:57.390Z,8.03
2023-04-13T20:52:24.602Z,8.37
2023-04-13T20:54:51.858Z,6.90
2023-04-13T20:57:19.962Z,7.57
2023-04-13T20:59:47.486Z,7.33
2023-04-13T21:02:15.450Z,7.17
2023-04-13T21:04:42.261Z,6.87
2023-04-13T21:07:11.203Z,7.43
2023-04-13T21:09:38.160Z,8.10
2023-04-13T21:12:04.787Z,9.90
2023-04-13T21:14:31.734Z,11.67
2023-04-13T21:16:58.408Z,13.47
2023-04-13T21:19:25.300Z,12.57
2023-04-13T21:21:57.236Z,13.20
2023-04-13T21:24:23.995Z,13.50
2023-04-13T21:26:50.952Z,13.23
2023-04-13T21:29:19.882Z,12.83
2023-04-13T21:31:47.081Z,11.10
2023-04-13T21:34:13.928Z,10.87
2023-04-13T21:39:13.473Z,11.73
2023-04-13T21:41:41.258Z,10.70
2023-04-13T21:44:16.145Z,10.43
2023-04-13T21:46:52.951Z,8.97
2023-04-13T21:49:19.490Z,9.07
2023-04-13T21:51:46.057Z,8.67
2023-04-13T21:54:12.620Z,8.83
2023-04-13T21:56:39.248Z,7.77
2023-04-13T21:59:05.912Z,8.43
2023-04-13T22:01:32.619Z,8.47
2023-04-13T22:03:59.309Z,8.10
2023-04-13T22:06:27.351Z,8.63
2023-04-13T22:08:54.925Z,8.60
2023-04-13T22:11:21.591Z,8.60
2023-04-13T22:13:48.249Z,9.10
2023-04-13T22:16:14.960Z,8.80
2023-04-13T22:18:41.978Z,9.10
2023-04-13T22:21:08.618Z,8.37
2023-04-13T22:23:35.242Z,8.33
2023-04-13T22:26:02.014Z,8.57
2023-04-13T22:28:30.398Z,8.27
2023-04-13T22:30:57.873Z,8.40
2023-04-13T22:33:24.530Z,8.10
2023-04-13T22:35:52.073Z,7.90
2023-04-13T22:38:19.416Z,7.93
2023-04-13T22:40:46.115Z,7.87
2023-04-13T22:43:12.706Z,7.87
2023-04-13T22:45:39.381Z,7.90
2023-04-13T22:48:06.284Z,8.47
2023-04-13T22:50:36.345Z,8.00
2023-04-13T22:53:02.913Z,8.10
2023-04-13T22:55:29.609Z,7.80
2023-04-13T22:57:56.576Z,8.20
2023-04-13T23:00:23.602Z,8.40
2023-04-13T23:02:52.838Z,8.30
2023-04-13T23:05:19.709Z,7.80
2023-04-13T23:07:46.267Z,7.33
2023-04-13T23:10:13.270Z,7.53
2023-04-13T23:12:41.022Z,7.33
2023-04-13T23:15:08.321Z,7.73
2023-04-13T23:17:35.380Z,8.40
2023-04-13T23:20:05.782Z,7.90
2023-04-13T23:22:32.872Z,7.90
2023-04-13T23:24:59.639Z,7.37
2023-04-13T23:27:26.211Z,7.00
2023-04-13T23:29:52.782Z,7.17
2023-04-13T23:32:19.398Z,7.00
2023-04-13T23:34:46.294Z,6.67
2023-04-13T23:37:12.932Z,6.80
2023-04-13T23:39:39.495Z,6.73
2023-04-13T23:42:06.641Z,6.47
2023-04-13T23:44:33.268Z,6.27
2023-04-13T23:46:59.886Z,6.50
2023-04-13T23:49:26.465Z,6.40
2023-04-13T23:51:53.266Z,6.10
2023-04-13T23:54:19.926Z,6.50
2023-04-13T23:56:46.577Z,6.97
2023-04-13T23:59:13.131Z,6.73
